Terminal Aerodrome Forecast
Issued by NWS

Home | Current Version | Previous Version | Text Only | Print | Product List | Glossary On
Versions: 1 2 3 4 5 6 7 8 9 10 11 12 13 14 15 16 17 18 19 20 21 22 23 24 25 26
000
FTUS43 KDLH 250114 AAB
TAFBRD
TAF AMD
KBRD 250114Z 2501/2524 05006KT 1/2SM SN FZFG VV006
     FM250300 09004KT 1SM -SN OVC006
     FM250600 33004KT 1SM -SN OVC015
     FM250800 30007KT P6SM VCSH OVC020
     FM250900 29008KT P6SM OVC020
     FM251900 26013G22KT P6SM BKN025=

USA.gov is the U.S. government's official web portal to all federal, state and local government web resources and services.